Participated 1 time
in 1989
Danny Lippens, Belgium
Tour de France 2026 starts from Barcelona, Spain in

Stats and Facts from
Tour de France.

2026   2025   2024   2023  2022  2021  2020  2019   2018  2017   2016   2015  2014  2013   2012   2011  2010   2009   2008   2007   2006   2005   2004   2003   2002   2001   2000   1999   1998   1997  1996   1995   1994   1993   1992  1991   1990   1989   1988   1987   1986   1985   1984   1983  1982  1981   1980   1979  1978  1977   1976  1975  1974  1973   1972   1971   1970  1969   1968   1967   1966   1965  1964  1963   1962   1961   1960   1959   1958   1957  1956   1955   1954   1953   1952  1951  1950  1949   1948  1947  1939   1938   1937   1936   1935   1934   1933  1932   1931   1930  1929   1928   1927   1926  1925  1924  1923   1922   1921   1920   1919  1914   1913   1912   1911   1910  1909   1908   1907   1906  1905  1904   1903 

Tourstats
Sitemap

After stage 21 - 2025:
 16451 starters.
  5463 different riders.
  689 teams.
  2398 stages.
  470 restdays.
  466506.50 km.
  5925 abandoned riders.

Click map for 2016 route.
Facts from Tour de France 2016
  |   Stages.  |   Stage winners.  |   Days in jerseys.  |   Teams.  |   All riders.  |   All riders by age.  |   All riders from.  |  

  |   Rookies.  |   Withdrawls.  |   Average speed.  |   GC.  |   Polka  |   Green  |   White  |   Summits. (In tour)  |   Miscellaneous.  |  

Stage 9 on July 10th. 2016
Pick a stage:  1  2  3  4  5  6  7  8  9  10  11  12  13  14  15  16  17  18  19  20  21  

After stage 9:    Chris Froome    Thibaut Pinot    Mark Cavendish    Adam Yates  
  Vielha Val d'AranAndorre-Arcalis | Dist: 184.00km. | Winner: Tom Dumoulin

Podium
1  Puerto de la Bonaigua Thibaut Pinotafter19.00 km.

1  Puerto de Canto Thomas De Gendtafter87.50 km.

2  Côte de la Comella Thomas De Gendtafter143.00 km.

1  Col de Beixalis Thibaut Pinotafter157.00 km.

HC  Andorre Arcalis Tom Dumoulinafter184.50 km.


Average speed for all riders in stage:  32,346 km./hr.

1
 Tom Dumoulin  Giant-Alpecin05h 16' 24"=34,893  km/h

2
 Rui Costa  Lampre-Merida05h 17' 02"+  00:00:38 =34,823  km/h

3
 Rafał Majka  Tinkoff05h 17' 02"+  00:00:38 =34,823  km/h

4  Daniel Navarro  Cofidis – Solutions Crédits05h 18' 03"+  00:01:39 =34,712  km/h

5  Winner Anacona  Movistar05h 18' 21"+  00:01:57 =34,679  km/h

6  Thibaut Pinot  FDJ05h 18' 54"+  00:02:30 =34,619  km/h

7  George Bennett  Lotto NL-Jumbo05h 19' 12"+  00:02:48 =34,586  km/h

8  Diego Rosa  Astana Pro Team05h 19' 16"+  00:02:52 =34,579  km/h

9  Mathias Frank  IAM Cycling05h 20' 08"+  00:03:44 =34,486  km/h

10  Adam Yates  ORICA BikeExchange05h 22' 59"+  00:06:35 =34,181  km/h

11  Chris Froome  Sky Procycling05h 22' 59"+  00:06:35 =34,181  km/h

12  Nairo Quintana  Movistar05h 22' 59"+  00:06:35 =34,181  km/h

13  Richie Porte  BMC05h 23' 01"+  00:06:37 =34,178  km/h

14  Dan Martin  Etixx-Quick Step05h 23' 01"+  00:06:37 =34,178  km/h

15  Jesus Herrada  Movistar05h 23' 01"+  00:06:37 =34,178  km/h

16  Sergio Henao  Sky Procycling05h 23' 20"+  00:06:56 =34,144  km/h

17  Romain Bardet  AG2R La Mondiale05h 23' 20"+  00:06:56 =34,144  km/h

18  Bauke Mollema  Trek-Segafredo05h 23' 20"+  00:06:56 =34,144  km/h

19  Louis Meintjes  Lampre-Merida05h 23' 20"+  00:06:56 =34,144  km/h

20  Joaquin Rodriguez  Katusha05h 23' 20"+  00:06:56 =34,144  km/h

58  Domenico Pozzovivo  AG2R La Mondiale05h 23' 20"+  00:06:56 =34,144  km/h

59  Ben Gastauer  AG2R La Mondiale05h 23' 20"+  00:06:56 =34,144  km/h

60  Sylvain Chavanel  Direct Energie05h 23' 20"+  00:06:56 =34,144  km/h

61  Peter Sagan  Tinkoff05h 23' 20"+  00:06:56 =34,144  km/h

21  Tejay Van Garderen  BMC05h 23' 37"+  00:07:13 =34,114  km/h

22  Roman Kreuziger  Tinkoff05h 23' 41"+  00:07:17 =34,107  km/h

23  Alejandro Valverde  Movistar05h 23' 41"+  00:07:17 =34,107  km/h

24  Alexis Vuillermoz  AG2R La Mondiale05h 23' 41"+  00:07:17 =34,107  km/h

25  Geraint Thomas  Sky Procycling05h 23' 48"+  00:07:24 =34,095  km/h

26  Vincenzo Nibali  Astana Pro Team05h 23' 59"+  00:07:35 =34,076  km/h

27  Fabio Aru  Astana Pro Team05h 23' 59"+  00:07:35 =34,076  km/h

28  Warren Barguil  Giant-Alpecin05h 23' 59"+  00:07:35 =34,076  km/h

29  Natnael Berhane  Dimension Data05h 24' 51"+  00:08:27 =33,985  km/h

22  Pierre Rolland  Cannondale Pro Cycling05h 25' 05"+  00:08:41 =33,961  km/h

30  Fränk Schleck  Trek-Segafredo05h 25' 05"+  00:08:41 =33,961  km/h

31  Sébastien Reichenbach  FDJ05h 25' 05"+  00:08:41 =33,961  km/h

33  Thomas De Gendt  Lotto Soudal05h 25' 14"+  00:08:50 =33,945  km/h

34  Mikel Nieve  Sky Procycling05h 25' 54"+  00:09:30 =33,875  km/h

35  Damiano Caruso  BMC05h 26' 05"+  00:09:41 =33,856  km/h

36  Stef Clement  IAM Cycling05h 26' 08"+  00:09:44 =33,851  km/h

37  Emanuel Buchmann  Bora-Argon 1805h 26' 11"+  00:09:47 =33,846  km/h

38  Jurgen Van Den Broeck  Katusha05h 26' 32"+  00:10:08 =33,810  km/h

39  Wilco Kelderman  Lotto NL-Jumbo05h 26' 32"+  00:10:08 =33,810  km/h

40  Jan Bakelants  AG2R La Mondiale05h 26' 42"+  00:10:18 =33,792  km/h

41  Serge Pauwels  Dimension Data05h 27' 15"+  00:10:51 =33,736  km/h

42  Luis León Sánchez  Astana Pro Team05h 29' 17"+  00:12:53 =33,527  km/h

43  Tanel Kangert  Astana Pro Team05h 29' 30"+  00:13:06 =33,505  km/h

44  Steve Morabito  FDJ05h 30' 14"+  00:13:50 =33,431  km/h

45  Haimar  Zubeldía  Trek-Segafredo05h 30' 14"+  00:13:50 =33,431  km/h

46  Eduardo Sepulveda  Fortuneo-Vital Concept05h 30' 23"+  00:13:59 =33,416  km/h

47  Wout Poels  Sky Procycling05h 30' 25"+  00:14:01 =33,412  km/h

48  Daniel Moreno  Movistar05h 31' 33"+  00:15:09 =33,298  km/h

49  Daryl Impey  ORICA BikeExchange05h 32' 00"+  00:15:36 =33,253  km/h

50  Rubén Plaza  ORICA BikeExchange05h 32' 00"+  00:15:36 =33,253  km/h

51  Bartosz Huzarski  Bora-Argon 1805h 32' 19"+  00:15:55 =33,221  km/h

52  Nicolas Edet  Cofidis – Solutions Crédits05h 33' 57"+  00:17:33 =33,059  km/h

53  Jérôme Coppel  IAM Cycling05h 34' 06"+  00:17:42 =33,044  km/h

54  Tsgabu Grmay  Lampre-Merida05h 35' 27"+  00:19:03 =32,911  km/h

55  Mikel Landa  Sky Procycling05h 35' 27"+  00:19:03 =32,911  km/h

56  Laurens Ten Dam  Giant-Alpecin05h 35' 35"+  00:19:11 =32,898  km/h

57  Arthur Vichot  FDJ05h 37' 03"+  00:20:39 =32,755  km/h

62  Peter Stetina  Trek-Segafredo05h 37' 38"+  00:21:14 =32,698  km/h

63  Georg Preidler  Giant-Alpecin05h 37' 38"+  00:21:14 =32,698  km/h

64  Ilnur Zakarin  Katusha05h 37' 38"+  00:21:14 =32,698  km/h

65  Amaël Moinard  BMC05h 37' 38"+  00:21:14 =32,698  km/h

66  Jan Polanc  Lampre-Merida05h 37' 38"+  00:21:14 =32,698  km/h

67  Julian Alaphilippe  Etixx-Quick Step05h 37' 38"+  00:21:14 =32,698  km/h

68  Adam Hansen  Lotto Soudal05h 37' 38"+  00:21:14 =32,698  km/h

69  Tony Gallopin  Lotto Soudal05h 37' 38"+  00:21:14 =32,698  km/h

70  Simon Geschke  Giant-Alpecin05h 38' 31"+  00:22:07 =32,613  km/h

71  Arnold Jeannesson  Cofidis – Solutions Crédits05h 38' 43"+  00:22:19 =32,594  km/h

72  Alexey Lutsenko  Astana Pro Team05h 38' 43"+  00:22:19 =32,594  km/h

73  Anthony Roux  FDJ05h 38' 43"+  00:22:19 =32,594  km/h

74  Lawson Craddock  Cannondale Pro Cycling05h 38' 43"+  00:22:19 =32,594  km/h

75  Chris Anker Sørensen  Fortuneo-Vital Concept05h 39' 22"+  00:22:58 =32,531  km/h

76  Fabrice Jeandesboz  Direct Energie05h 39' 22"+  00:22:58 =32,531  km/h

77  Jérémy Roy  FDJ05h 39' 48"+  00:23:24 =32,490  km/h

78  Romain Sicard  Direct Energie05h 40' 34"+  00:24:10 =32,417  km/h

79  Brice Feillu  Fortuneo-Vital Concept05h 42' 12"+  00:25:48 =32,262  km/h

80  Robert Kišerlovski  Tinkoff05h 42' 12"+  00:25:48 =32,262  km/h

81  Kristijan Ðurasek  Lampre-Merida05h 42' 12"+  00:25:48 =32,262  km/h

82  Jakob Fuglsang  Astana Pro Team05h 44' 40"+  00:28:16 =32,031  km/h

83  Paolo Tiralongo  Astana Pro Team05h 44' 40"+  00:28:16 =32,031  km/h

84  Michael Valgren  Tinkoff05h 44' 40"+  00:28:16 =32,031  km/h

85  Andriy Grivko  Astana Pro Team05h 44' 40"+  00:28:16 =32,031  km/h

86  Cyril Gautier  AG2R La Mondiale05h 44' 40"+  00:28:16 =32,031  km/h

87  Anthony Delaplace  Fortuneo-Vital Concept05h 44' 40"+  00:28:16 =32,031  km/h

88  Luka Pibernik  Lampre-Merida05h 44' 40"+  00:28:16 =32,031  km/h

89  Alberto Losada  Katusha05h 46' 07"+  00:29:43 =31,897  km/h

90  Ángel Vicioso  Katusha05h 46' 07"+  00:29:43 =31,897  km/h

91  Angelo Tulik  Direct Energie05h 46' 07"+  00:29:43 =31,897  km/h

92  Bryan Coquard  Direct Energie05h 46' 07"+  00:29:43 =31,897  km/h

93  Petr Vakoč  Etixx-Quick Step05h 46' 07"+  00:29:43 =31,897  km/h

94  Oliver Naesen  IAM Cycling05h 47' 34"+  00:31:10 =31,764  km/h

95  Roy Curvers  Giant-Alpecin05h 47' 34"+  00:31:10 =31,764  km/h

96  Simon Gerrans  ORICA BikeExchange05h 47' 34"+  00:31:10 =31,764  km/h

97  Michael Schär  BMC05h 47' 34"+  00:31:10 =31,764  km/h

98  Luis Angel Mate  Cofidis – Solutions Crédits05h 47' 34"+  00:31:10 =31,764  km/h

99  Dylan Van Baarle  Cannondale Pro Cycling05h 47' 34"+  00:31:10 =31,764  km/h

100  Tom-Jelte Slagter  Cannondale Pro Cycling05h 47' 34"+  00:31:10 =31,764  km/h

101  Antoine Duchesne  Direct Energie05h 47' 34"+  00:31:10 =31,764  km/h

102  Marcus Burghardt  BMC05h 47' 34"+  00:31:10 =31,764  km/h

103  Patrick Konrad  Bora-Argon 1805h 47' 34"+  00:31:10 =31,764  km/h

104  Andreas Schillinger  Bora-Argon 1805h 47' 34"+  00:31:10 =31,764  km/h

105  Cesare Benedetti  Bora-Argon 1805h 47' 34"+  00:31:10 =31,764  km/h

106  Jan Bárta  Bora-Argon 1805h 47' 34"+  00:31:10 =31,764  km/h

107  Alex Howes  Cannondale Pro Cycling05h 48' 12"+  00:31:48 =31,706  km/h

108  Brent Bookwalter  BMC05h 48' 12"+  00:31:48 =31,706  km/h

109  Armindo Fonseca  Fortuneo-Vital Concept05h 48' 12"+  00:31:48 =31,706  km/h

110  Florian Vachon  Fortuneo-Vital Concept05h 48' 12"+  00:31:48 =31,706  km/h

111  Yukiya  Arashiro  Lampre-Merida05h 48' 12"+  00:31:48 =31,706  km/h

112  Jérôme Cousin  Cofidis – Solutions Crédits05h 48' 12"+  00:31:48 =31,706  km/h

113  Jarlinson Pantano  IAM Cycling05h 48' 27"+  00:32:03 =31,683  km/h

114  Mathew Hayman  ORICA BikeExchange05h 48' 27"+  00:32:03 =31,683  km/h

115  Luke Durbridge  ORICA BikeExchange05h 48' 27"+  00:32:03 =31,683  km/h

116  Pierre-Luc Périchon  Fortuneo-Vital Concept05h 48' 46"+  00:32:22 =31,654  km/h

117  Paul Voss  Bora-Argon 1805h 49' 05"+  00:32:41 =31,626  km/h

118  Cyril Lemoine  Cofidis – Solutions Crédits05h 51' 50"+  00:35:26 =31,378  km/h

119  William  Bonnet  FDJ05h 51' 50"+  00:35:26 =31,378  km/h

120  Sep Vanmarcke  Lotto NL-Jumbo05h 51' 50"+  00:35:26 =31,378  km/h

121  Yohann Gène  Direct Energie05h 51' 50"+  00:35:26 =31,378  km/h

122  Fabio Sabatini  Etixx-Quick Step05h 51' 50"+  00:35:26 =31,378  km/h

123  Bert-Jan Lindeman  Lotto NL-Jumbo05h 51' 50"+  00:35:26 =31,378  km/h

124  Luke Rowe  Sky Procycling05h 51' 50"+  00:35:26 =31,378  km/h

125  Dylan Groenewegen  Lotto NL-Jumbo05h 51' 50"+  00:35:26 =31,378  km/h

126  Robert Wagner  Lotto NL-Jumbo05h 51' 50"+  00:35:26 =31,378  km/h

127  Michael Matthews  ORICA BikeExchange05h 51' 50"+  00:35:26 =31,378  km/h

128  Oscar Gatto  Tinkoff05h 51' 50"+  00:35:26 =31,378  km/h

129  Rohan Dennis  BMC05h 51' 50"+  00:35:26 =31,378  km/h

130  Fabian Cancellara  Trek-Segafredo05h 51' 50"+  00:35:26 =31,378  km/h

131  Ian Stannard  Sky Procycling05h 51' 50"+  00:35:26 =31,378  km/h

132  Reto Hollenstein  IAM Cycling05h 51' 50"+  00:35:26 =31,378  km/h

133  Marcel Kittel  Etixx-Quick Step05h 51' 50"+  00:35:26 =31,378  km/h

134  Nelson Oliveira  Movistar05h 51' 50"+  00:35:26 =31,378  km/h

135  Ramon Sinkeldam  Giant-Alpecin05h 51' 50"+  00:35:26 =31,378  km/h

136  Mikaël Cherel  AG2R La Mondiale05h 51' 50"+  00:35:26 =31,378  km/h

137  Matti Breschel  Cannondale Pro Cycling05h 51' 50"+  00:35:26 =31,378  km/h

138  Markel Irizar  Trek-Segafredo05h 51' 50"+  00:35:26 =31,378  km/h

139  Geoffrey Soupe  Cofidis – Solutions Crédits05h 51' 50"+  00:35:26 =31,378  km/h

140  Imanol Erviti  Movistar05h 51' 50"+  00:35:26 =31,378  km/h

141  Adrien Petit  Direct Energie05h 51' 50"+  00:35:26 =31,378  km/h

142  Christopher Juul Jensen  ORICA BikeExchange05h 51' 50"+  00:35:26 =31,378  km/h

143  Edward Theuns  Trek-Segafredo05h 51' 50"+  00:35:26 =31,378  km/h

144  Daniel Teklehaimanot  Dimension Data05h 51' 50"+  00:35:26 =31,378  km/h

145  Thomas  Voeckler  Direct Energie05h 51' 50"+  00:35:26 =31,378  km/h

146  Timo Roosen  Lotto NL-Jumbo05h 51' 50"+  00:35:26 =31,378  km/h

147  Tony Martin  Etixx-Quick Step05h 51' 50"+  00:35:26 =31,378  km/h

148  Reinardt Janse Van Rensburg  Dimension Data05h 51' 50"+  00:35:26 =31,378  km/h

149  Kristjan Koren  Cannondale Pro Cycling05h 51' 50"+  00:35:26 =31,378  km/h

150  Jens Debusschere  Lotto Soudal05h 51' 50"+  00:35:26 =31,378  km/h

151  Maciej Bodnar  Tinkoff05h 51' 50"+  00:35:26 =31,378  km/h

152  Jürgen Roelandts  Lotto Soudal05h 51' 50"+  00:35:26 =31,378  km/h

153  Sebastian Langeveld  Cannondale Pro Cycling05h 51' 50"+  00:35:26 =31,378  km/h

154  Gregory Rast  Trek-Segafredo05h 51' 50"+  00:35:26 =31,378  km/h

155  Maarten Wynants  Lotto NL-Jumbo05h 51' 50"+  00:35:26 =31,378  km/h

156  Ion Izagirre  Movistar05h 51' 50"+  00:35:26 =31,378  km/h

157  Gorka Izagirre  Movistar05h 51' 50"+  00:35:26 =31,378  km/h

158  Ramūnas Navardauskas  Cannondale Pro Cycling05h 51' 50"+  00:35:26 =31,378  km/h

159  Borut Božič  Cofidis – Solutions Crédits05h 51' 50"+  00:35:26 =31,378  km/h

160  Albert Timmer  Giant-Alpecin05h 51' 50"+  00:35:26 =31,378  km/h

161  Alexis Gougeard  AG2R La Mondiale05h 51' 50"+  00:35:26 =31,378  km/h

162  Martin Elmiger  IAM Cycling05h 51' 50"+  00:35:26 =31,378  km/h

163  Matteo Bono  Lampre-Merida05h 51' 50"+  00:35:26 =31,378  km/h

164  Vasil Kiryienka  Sky Procycling05h 51' 50"+  00:35:26 =31,378  km/h

165  Samuel Dumoulin  AG2R La Mondiale05h 51' 50"+  00:35:26 =31,378  km/h

166  Edvald Boasson Hagen  Dimension Data05h 51' 50"+  00:35:26 =31,378  km/h

167  Jasper Stuyven  Trek-Segafredo05h 51' 50"+  00:35:26 =31,378  km/h

168  André Greipel  Lotto Soudal05h 51' 50"+  00:35:26 =31,378  km/h

169  Paul Martens  Lotto NL-Jumbo05h 51' 50"+  00:35:26 =31,378  km/h

170  Matteo Tosatto  Tinkoff05h 51' 50"+  00:35:26 =31,378  km/h

171  Gregory Henderson  Lotto Soudal05h 51' 50"+  00:35:26 =31,378  km/h

172  Christophe Laporte  Cofidis – Solutions Crédits05h 51' 50"+  00:35:26 =31,378  km/h

173  Mark Cavendish  Dimension Data05h 51' 50"+  00:35:26 =31,378  km/h

174  Julien Vermote  Etixx-Quick Step05h 51' 50"+  00:35:26 =31,378  km/h

175  Greg Van Avermaet  BMC05h 51' 50"+  00:35:26 =31,378  km/h

176  Michael Albasini  ORICA BikeExchange05h 51' 50"+  00:35:26 =31,378  km/h

177  Vegard Breen  Fortuneo-Vital Concept05h 51' 50"+  00:35:26 =31,378  km/h

178  Iljo Keisse  Etixx-Quick Step05h 51' 50"+  00:35:26 =31,378  km/h

179  Jacopo Guarnieri  Katusha05h 51' 50"+  00:35:26 =31,378  km/h

180  Maximiliano Richeze  Etixx-Quick Step05h 51' 50"+  00:35:26 =31,378  km/h

181  Sondre Holst Enger  IAM Cycling05h 51' 50"+  00:35:26 =31,378  km/h

182  Sam Bennett  Bora-Argon 1805h 51' 50"+  00:35:26 =31,378  km/h

183  Davide Cimolai  Lampre-Merida05h 51' 50"+  00:35:26 =31,378  km/h

184  Alexander Kristoff  Katusha05h 51' 50"+  00:35:26 =31,378  km/h

185  Leigh Howard  IAM Cycling05h 51' 50"+  00:35:26 =31,378  km/h

186  Daniel McLay  Fortuneo-Vital Concept05h 51' 50"+  00:35:26 =31,378  km/h

187  Lars Bak  Lotto Soudal05h 51' 50"+  00:35:26 =31,378  km/h

188  Marco Haller  Katusha05h 51' 50"+  00:35:26 =31,378  km/h

189  John Degenkolb  Giant-Alpecin05h 51' 50"+  00:35:26 =31,378  km/h

190  Bernhard Eisel  Dimension Data05h 51' 50"+  00:35:26 =31,378  km/h

191  Stephen Cummings  Dimension Data05h 51' 50"+  00:35:26 =31,378  km/h

192  Shane Archbold  Bora-Argon 1805h 51' 50"+  00:35:26 =31,378  km/h

193  Marcel Sieberg  Lotto Soudal05h 51' 50"+  00:35:26 =31,378  km/h


Withdrawls: 4
 RiderTeamReason
31   Alberto Contador TinkoffDid not finish
108   Mark Renshaw Dimension DataDid not finish
123   Matthieu Ladagnous FDJDid not finish
125   Cédric Pineau FDJDid not finish
Todays birthdays.

1888 • Giuseppe Contesini
1911 • Edmond Pages
1935 • Eddy Pauwels
1940 • Julien Haelterman
1958 • Luc Colijn
1962 • Jean-François Bernard
1984 • Yann Huguet
1993 • Owain Doull

 

Optimized for Chrome - Edge
and Opera browsers.